Time;durP1;ratioP1;P1;durP2;ratioP2;P2;SDS_P1;SDS_P2;PMS_P1;PMS_P2;Temp;Humidity;BMP_temperature;BMP_pressure;BME280_temperature;BME280_humidity;BME280_pressure;Samples;Min_cycle;Max_cycle;Signal;HPM_P1;HPM_P2
2022/03/24 00:01:41;;;;;;;26.13;17.25;;;8.10;99.90;;;;;;4924081;29;20052;-79
2022/03/24 00:04:07;;;;;;;21.75;18.83;;;8.00;99.90;;;;;;4924865;29;20090;-78
2022/03/24 00:06:33;;;;;;;22.90;18.05;;;8.00;99.90;;;;;;4924909;29;20039;-78
2022/03/24 00:08:59;;;;;;;32.53;19.35;;;8.00;99.90;;;;;;4924196;29;20122;-78
2022/03/24 00:11:24;;;;;;;24.40;18.50;;;7.90;99.90;;;;;;4923639;29;20415;-78
2022/03/24 00:13:50;;;;;;;25.48;17.25;;;7.90;99.90;;;;;;4931699;29;20450;-78
2022/03/24 00:16:17;;;;;;;20.83;16.75;;;7.90;99.90;;;;;;4958246;28;20537;-79
2022/03/24 00:18:43;;;;;;;26.40;20.05;;;7.90;99.90;;;;;;4943822;28;20043;-78
2022/03/24 00:21:09;;;;;;;18.17;14.73;;;7.80;99.90;;;;;;4942665;28;20043;-79
2022/03/24 00:23:35;;;;;;;27.50;19.67;;;7.80;99.90;;;;;;4941780;29;20603;-78
2022/03/24 00:26:00;;;;;;;21.95;18.83;;;7.70;99.90;;;;;;4944117;28;20093;-78
2022/03/24 00:28:26;;;;;;;25.52;19.10;;;7.70;99.90;;;;;;4943368;28;20840;-78
2022/03/24 00:30:52;;;;;;;28.48;19.88;;;7.70;99.90;;;;;;4942690;28;20490;-78
2022/03/24 00:33:18;;;;;;;33.28;21.10;;;7.70;99.90;;;;;;4942311;28;20051;-78
2022/03/24 00:35:44;;;;;;;29.23;20.90;;;7.70;99.90;;;;;;4942148;29;20740;-78
2022/03/24 00:38:09;;;;;;;31.88;19.63;;;7.60;99.90;;;;;;4944041;28;20043;-79
2022/03/24 00:40:35;;;;;;;29.48;21.00;;;7.60;99.90;;;;;;4948029;28;20054;-78
2022/03/24 00:43:01;;;;;;;21.95;17.83;;;7.60;99.90;;;;;;4931448;28;20044;-78
2022/03/24 00:45:27;;;;;;;28.05;18.88;;;7.60;99.90;;;;;;4926864;29;20044;-78
2022/03/24 00:47:53;;;;;;;24.35;16.38;;;7.60;99.90;;;;;;4928102;29;20118;-78
2022/03/24 00:50:19;;;;;;;22.58;17.65;;;7.60;99.90;;;;;;4928199;29;20067;-78
2022/03/24 00:52:46;;;;;;;28.25;20.00;;;7.50;99.90;;;;;;4925771;29;20075;-78
2022/03/24 00:55:19;;;;;;;25.27;20.60;;;7.50;99.90;;;;;;4926816;29;20134;-79
2022/03/24 00:57:49;;;;;;;26.48;22.52;;;7.50;99.90;;;;;;4942825;28;20111;-78
2022/03/24 01:00:18;;;;;;;34.90;22.50;;;7.50;99.90;;;;;;4927766;29;20058;-78
2022/03/24 01:02:49;;;;;;;41.40;22.95;;;7.40;99.90;;;;;;4928398;29;20043;-78
2022/03/24 01:05:16;;;;;;;24.30;21.17;;;7.40;99.90;;;;;;4927669;29;20057;-78
2022/03/24 01:07:43;;;;;;;34.42;22.88;;;7.40;99.90;;;;;;4925993;29;20190;-79
2022/03/24 01:10:11;;;;;;;34.47;23.75;;;7.40;99.90;;;;;;4929005;29;20058;-79
2022/03/24 01:12:39;;;;;;;40.25;25.70;;;7.40;99.90;;;;;;4927940;29;20135;-78
2022/03/24 01:15:10;;;;;;;35.58;22.23;;;7.40;99.90;;;;;;4911282;29;20055;-78
2022/03/24 01:17:37;;;;;;;34.53;25.58;;;7.40;99.90;;;;;;4926664;29;20054;-78
2022/03/24 01:20:04;;;;;;;38.25;23.70;;;7.40;99.90;;;;;;4927889;29;20415;-78
2022/03/24 01:22:30;;;;;;;33.40;25.30;;;7.40;99.90;;;;;;4926487;29;20042;-78
2022/03/24 01:24:56;;;;;;;46.03;28.20;;;7.40;99.90;;;;;;4927446;29;20047;-78
2022/03/24 01:27:26;;;;;;;38.08;23.90;;;7.40;99.90;;;;;;4927573;29;20052;-78
2022/03/24 01:29:54;;;;;;;41.05;25.13;;;7.40;99.90;;;;;;4927502;29;20044;-78
2022/03/24 01:32:20;;;;;;;33.75;24.88;;;7.40;99.90;;;;;;4927110;29;20047;-78
2022/03/24 01:34:46;;;;;;;32.88;22.95;;;7.30;99.90;;;;;;4926330;29;20095;-78
2022/03/24 01:37:12;;;;;;;28.70;24.55;;;7.30;99.90;;;;;;4924565;29;20431;-78
2022/03/24 01:39:38;;;;;;;29.65;21.55;;;7.30;99.90;;;;;;4946590;29;20514;-78
2022/03/24 01:42:05;;;;;;;31.65;24.48;;;7.30;99.90;;;;;;4946832;28;20046;-78
2022/03/24 01:44:31;;;;;;;39.35;28.10;;;7.20;99.90;;;;;;4943166;28;20139;-78
2022/03/24 01:47:05;;;;;;;39.80;24.08;;;7.30;99.90;;;;;;4927451;29;20413;-78
2022/03/24 01:49:33;;;;;;;28.77;24.02;;;7.30;99.90;;;;;;4925911;29;20051;-77
2022/03/24 01:51:59;;;;;;;29.98;26.02;;;7.30;99.90;;;;;;4926125;29;20048;-78
2022/03/24 01:54:30;;;;;;;34.75;25.23;;;7.20;99.90;;;;;;4926520;29;20102;-78
2022/03/24 01:56:56;;;;;;;28.08;24.98;;;7.20;99.90;;;;;;4925421;29;20047;-78
2022/03/24 01:59:21;;;;;;;44.20;26.42;;;7.20;99.90;;;;;;4941548;29;20060;-78
2022/03/24 02:01:48;;;;;;;36.42;27.33;;;7.20;99.90;;;;;;4926837;29;20050;-78
2022/03/24 02:04:15;;;;;;;29.25;24.45;;;7.20;99.90;;;;;;4940839;28;20040;-78
2022/03/24 02:06:41;;;;;;;27.92;23.50;;;7.20;99.90;;;;;;4925873;29;20106;-78
2022/03/24 02:09:07;;;;;;;41.72;27.13;;;7.20;99.90;;;;;;4941741;28;20035;-78
2022/03/24 02:11:36;;;;;;;35.42;23.42;;;7.20;99.90;;;;;;4945403;28;20066;-78
2022/03/24 02:14:03;;;;;;;39.55;27.65;;;7.20;99.90;;;;;;4945717;28;20572;-78
2022/03/24 02:16:35;;;;;;;36.55;27.05;;;7.20;99.90;;;;;;4942839;28;20089;-78
2022/03/24 02:19:16;;;;;;;35.63;28.85;;;7.20;99.90;;;;;;4940963;28;20142;-78
2022/03/24 02:21:46;;;;;;;33.45;27.13;;;7.20;99.90;;;;;;4924520;29;20526;-78
2022/03/24 02:24:14;;;;;;;29.42;25.23;;;7.20;99.90;;;;;;4926097;29;20085;-78
2022/03/24 02:26:42;;;;;;;43.65;29.33;;;7.10;99.90;;;;;;4926371;29;20039;-78
2022/03/24 02:29:10;;;;;;;37.22;27.13;;;7.10;99.90;;;;;;4926482;29;20044;-78
2022/03/24 02:31:56;;;;;;;35.42;27.83;;;7.10;99.90;;;;;;4926809;29;20051;-78
2022/03/24 02:34:40;;;;;;;34.65;26.10;;;7.10;99.90;;;;;;4925562;29;20392;-78
2022/03/24 02:37:11;;;;;;;49.63;32.35;;;7.10;99.90;;;;;;4925385;29;20055;-78
2022/03/24 02:39:39;;;;;;;31.40;26.50;;;7.10;99.90;;;;;;4941009;29;20111;-78
2022/03/24 02:42:06;;;;;;;43.13;24.73;;;7.10;99.90;;;;;;4926566;29;20186;-78
2022/03/24 02:44:32;;;;;;;35.58;28.75;;;7.10;99.90;;;;;;4926947;29;20047;-78
2022/03/24 02:47:01;;;;;;;35.22;28.27;;;7.10;99.90;;;;;;4945037;28;20040;-78
2022/03/24 02:49:30;;;;;;;34.25;27.83;;;7.10;99.90;;;;;;4944177;28;20117;-78
2022/03/24 02:51:58;;;;;;;33.10;28.35;;;7.00;99.90;;;;;;4943916;28;20098;-78
2022/03/24 02:54:26;;;;;;;36.33;29.75;;;7.00;99.90;;;;;;4944559;28;20440;-78
2022/03/24 02:56:51;;;;;;;45.17;32.33;;;7.00;99.90;;;;;;4942782;28;20051;-78
2022/03/24 02:59:17;;;;;;;38.72;32.55;;;7.00;99.90;;;;;;4943870;28;20055;-78
2022/03/24 03:01:51;;;;;;;31.77;26.27;;;7.00;99.90;;;;;;4942605;28;20097;-78
2022/03/24 03:04:17;;;;;;;37.92;29.02;;;6.90;99.90;;;;;;4943100;29;20047;-78
2022/03/24 03:06:42;;;;;;;35.38;26.92;;;6.90;99.90;;;;;;4943927;28;20442;-78
2022/03/24 03:09:08;;;;;;;31.67;26.33;;;6.90;99.90;;;;;;4944766;28;20101;-78
2022/03/24 03:11:34;;;;;;;43.17;28.67;;;6.90;99.90;;;;;;4944278;28;20772;-78
2022/03/24 03:14:00;;;;;;;38.90;28.05;;;6.90;99.90;;;;;;4944791;28;20398;-78
2022/03/24 03:16:26;;;;;;;32.30;25.98;;;6.90;99.90;;;;;;4925236;29;20051;-78
2022/03/24 03:18:52;;;;;;;40.70;31.70;;;6.90;99.90;;;;;;4940425;29;20047;-78
2022/03/24 03:21:18;;;;;;;35.45;27.55;;;6.90;99.90;;;;;;4924526;29;20118;-78
2022/03/24 03:23:44;;;;;;;37.50;26.90;;;6.80;99.90;;;;;;4925224;29;20135;-78
2022/03/24 03:26:12;;;;;;;43.20;27.88;;;6.80;99.90;;;;;;4940357;28;20208;-78
2022/03/24 03:28:38;;;;;;;36.60;26.73;;;6.80;99.90;;;;;;4924161;29;20055;-78
2022/03/24 03:31:05;;;;;;;34.92;30.88;;;6.80;99.90;;;;;;4925806;29;20052;-78
2022/03/24 03:33:36;;;;;;;32.15;26.70;;;6.80;99.90;;;;;;4925302;29;20040;-78
2022/03/24 03:36:03;;;;;;;31.85;25.50;;;6.80;99.90;;;;;;4941503;28;20051;-78
2022/03/24 03:38:29;;;;;;;33.38;25.65;;;6.70;99.90;;;;;;4942050;28;20054;-78
2022/03/24 03:40:55;;;;;;;32.13;25.65;;;6.70;99.90;;;;;;4943784;28;20039;-78
2022/03/24 03:43:22;;;;;;;41.92;31.38;;;6.70;99.90;;;;;;4935402;28;20466;-78
2022/03/24 03:45:48;;;;;;;40.33;28.10;;;6.70;99.90;;;;;;4923573;29;20195;-78
2022/03/24 03:48:14;;;;;;;36.80;25.70;;;6.60;99.90;;;;;;4925142;29;20130;-78
2022/03/24 03:50:41;;;;;;;32.58;26.52;;;6.60;99.90;;;;;;4924897;29;20047;-78
2022/03/24 03:53:08;;;;;;;44.30;26.80;;;6.60;99.90;;;;;;4924369;29;20403;-78
2022/03/24 03:55:35;;;;;;;38.63;27.13;;;6.60;99.90;;;;;;4924384;29;20059;-78
2022/03/24 03:58:02;;;;;;;47.92;27.90;;;6.50;99.90;;;;;;4923533;29;20083;-78
2022/03/24 04:03:12;;;;;;;40.17;29.92;;;6.50;99.90;;;;;;4925014;29;20192;-78
2022/03/24 04:05:38;;;;;;;33.00;27.65;;;6.40;99.90;;;;;;4923964;29;20069;-78
2022/03/24 04:08:04;;;;;;;39.00;28.73;;;6.40;99.90;;;;;;4924663;29;20047;-78
2022/03/24 04:10:30;;;;;;;34.00;27.80;;;6.40;99.90;;;;;;4939032;28;20077;-78
2022/03/24 04:12:59;;;;;;;33.95;27.77;;;6.40;99.90;;;;;;4926987;29;20056;-78
2022/03/24 04:15:26;;;;;;;32.83;24.60;;;6.40;99.90;;;;;;4929805;29;20071;-75
2022/03/24 04:17:52;;;;;;;37.65;24.05;;;6.40;99.90;;;;;;4928496;29;20526;-75
2022/03/24 04:20:21;;;;;;;30.67;27.38;;;6.30;99.90;;;;;;4928484;29;20043;-75
2022/03/24 04:22:54;;;;;;;34.25;28.02;;;6.30;99.90;;;;;;4942806;28;20402;-75
2022/03/24 04:25:22;;;;;;;34.53;24.67;;;6.30;99.90;;;;;;4928781;29;20127;-78
2022/03/24 04:27:49;;;;;;;46.70;26.98;;;6.30;99.90;;;;;;4928806;29;20054;-78
2022/03/24 04:30:16;;;;;;;34.30;26.75;;;6.30;99.90;;;;;;4928120;29;20079;-78
2022/03/24 04:32:42;;;;;;;28.15;24.98;;;6.30;99.90;;;;;;4928648;29;20566;-78
2022/03/24 04:35:08;;;;;;;35.15;24.13;;;6.20;99.90;;;;;;4928991;29;20261;-78
2022/03/24 04:37:34;;;;;;;47.33;27.48;;;6.20;99.90;;;;;;4927843;29;20752;-78
2022/03/24 04:40:00;;;;;;;34.17;26.40;;;6.20;99.90;;;;;;4928706;29;20063;-78
2022/03/24 04:42:26;;;;;;;43.63;30.20;;;6.20;99.90;;;;;;4927139;29;20391;-78
2022/03/24 04:44:51;;;;;;;32.17;25.73;;;6.20;99.90;;;;;;4938844;29;20131;-78
2022/03/24 04:47:17;;;;;;;43.72;29.52;;;6.20;99.90;;;;;;4926760;29;20138;-78
2022/03/24 04:49:43;;;;;;;36.00;28.60;;;6.20;99.90;;;;;;4928142;29;20044;-78
2022/03/24 04:52:09;;;;;;;36.60;27.88;;;6.20;99.90;;;;;;4942254;29;20059;-78
2022/03/24 04:54:35;;;;;;;38.83;28.10;;;6.20;99.90;;;;;;4927060;29;20055;-78
2022/03/24 04:57:01;;;;;;;48.72;30.00;;;6.10;99.90;;;;;;4942233;28;20130;-78
2022/03/24 04:59:27;;;;;;;42.15;25.92;;;6.10;99.90;;;;;;4945352;28;20047;-78
2022/03/24 05:01:53;;;;;;;40.22;28.23;;;6.10;99.90;;;;;;4946975;28;20506;-78
2022/03/24 05:04:18;;;;;;;35.75;25.23;;;6.10;99.90;;;;;;4947183;28;20474;-78
2022/03/24 05:06:44;;;;;;;41.53;29.45;;;6.10;99.90;;;;;;4945097;29;20126;-78
2022/03/24 05:09:09;;;;;;;30.70;24.58;;;6.10;99.90;;;;;;4946778;28;20586;-78
2022/03/24 05:11:35;;;;;;;33.88;28.45;;;6.00;99.90;;;;;;4941058;28;20080;-78
2022/03/24 05:14:01;;;;;;;32.53;26.48;;;6.00;99.90;;;;;;4926664;29;20561;-78
2022/03/24 05:16:27;;;;;;;35.80;27.58;;;6.00;99.90;;;;;;4926031;29;20086;-78
2022/03/24 05:18:53;;;;;;;32.70;26.33;;;6.00;99.90;;;;;;4926244;29;20048;-78
2022/03/24 05:21:19;;;;;;;37.17;27.40;;;6.00;99.90;;;;;;4926871;29;20479;-78
2022/03/24 05:23:45;;;;;;;32.88;28.30;;;6.00;99.90;;;;;;4927224;29;20048;-78
2022/03/24 05:26:10;;;;;;;37.90;25.83;;;5.90;99.90;;;;;;4926444;29;20173;-78
2022/03/24 05:28:36;;;;;;;35.63;24.25;;;5.90;99.90;;;;;;4927302;29;20043;-78
2022/03/24 05:31:02;;;;;;;32.85;23.10;;;5.90;99.90;;;;;;4927201;29;20458;-78
2022/03/24 05:33:28;;;;;;;29.90;22.58;;;5.90;99.90;;;;;;4927396;29;20467;-78
2022/03/24 05:35:53;;;;;;;41.47;26.40;;;5.90;99.90;;;;;;4926137;29;20044;-78
2022/03/24 05:38:19;;;;;;;42.30;25.60;;;5.80;99.90;;;;;;4927290;29;20420;-78
2022/03/24 05:40:44;;;;;;;38.40;27.00;;;5.90;99.90;;;;;;4939936;29;20387;-78
2022/03/24 05:43:10;;;;;;;43.15;25.92;;;5.90;99.90;;;;;;4934066;29;20135;-78
2022/03/24 05:45:36;;;;;;;31.45;25.30;;;5.90;99.90;;;;;;4927111;29;20134;-78
2022/03/24 05:48:02;;;;;;;29.63;24.50;;;5.90;99.90;;;;;;4926128;29;20483;-78
2022/03/24 05:50:29;;;;;;;31.10;23.10;;;5.90;99.90;;;;;;4926893;29;20060;-78
2022/03/24 05:52:56;;;;;;;27.10;23.15;;;5.90;99.90;;;;;;4925612;29;20115;-78
2022/03/24 05:55:23;;;;;;;43.28;24.75;;;5.90;99.90;;;;;;4929036;29;20051;-78
2022/03/24 05:57:49;;;;;;;38.35;27.02;;;5.90;99.90;;;;;;4945860;28;20069;-78
2022/03/24 06:00:15;;;;;;;39.00;25.30;;;5.90;99.90;;;;;;4945179;28;20045;-78
2022/03/24 06:02:41;;;;;;;36.20;22.50;;;6.00;99.90;;;;;;4940353;28;20134;-78
2022/03/24 06:05:12;;;;;;;31.48;21.75;;;6.00;99.90;;;;;;4925584;29;20105;-78
2022/03/24 06:07:38;;;;;;;34.53;24.35;;;6.00;99.90;;;;;;4926236;29;20074;-78
2022/03/24 06:10:05;;;;;;;33.25;24.13;;;6.00;99.90;;;;;;4926327;29;20553;-78
2022/03/24 06:12:31;;;;;;;26.90;23.17;;;6.00;99.90;;;;;;4924911;29;20067;-78
2022/03/24 06:14:57;;;;;;;25.48;23.00;;;5.90;99.90;;;;;;4925650;29;20103;-78
2022/03/24 06:17:23;;;;;;;41.40;28.48;;;6.00;99.90;;;;;;4925816;29;20517;-78
2022/03/24 06:19:49;;;;;;;27.17;23.98;;;6.00;99.90;;;;;;4926749;29;20040;-78
2022/03/24 06:22:16;;;;;;;36.28;23.30;;;6.00;99.90;;;;;;4922809;29;20047;-78
2022/03/24 06:24:41;;;;;;;33.72;27.70;;;6.00;99.90;;;;;;4926054;29;20066;-79
2022/03/24 06:27:08;;;;;;;29.13;24.85;;;6.00;99.90;;;;;;4934055;29;20085;-78
2022/03/24 06:29:34;;;;;;;32.67;24.20;;;6.00;99.90;;;;;;4932312;29;20060;-78
2022/03/24 06:32:00;;;;;;;39.55;28.10;;;6.10;99.90;;;;;;4926416;29;20055;-78
2022/03/24 06:34:26;;;;;;;25.88;19.30;;;6.10;99.90;;;;;;4925199;29;20107;-81
2022/03/24 06:36:54;;;;;;;36.40;24.23;;;6.10;99.90;;;;;;4925477;29;20593;-76
2022/03/24 06:39:20;;;;;;;30.25;25.90;;;6.10;99.90;;;;;;4925163;29;20071;-77
2022/03/24 06:41:46;;;;;;;29.33;25.08;;;6.10;99.90;;;;;;4924878;29;20380;-77
2022/03/24 06:44:11;;;;;;;36.50;25.80;;;6.10;99.90;;;;;;4928383;29;20191;-77
2022/03/24 06:46:38;;;;;;;37.30;29.65;;;6.20;99.90;;;;;;4924989;29;20536;-77
2022/03/24 06:49:05;;;;;;;34.33;28.27;;;6.20;99.90;;;;;;4925543;29;20047;-77
2022/03/24 06:51:31;;;;;;;41.17;27.38;;;6.30;99.90;;;;;;4923568;29;20046;-77
2022/03/24 06:53:57;;;;;;;36.75;29.88;;;6.40;99.90;;;;;;4924491;29;20052;-77
2022/03/24 06:56:22;;;;;;;26.95;24.23;;;6.40;99.90;;;;;;4925066;29;20047;-77
2022/03/24 06:58:49;;;;;;;30.98;24.73;;;6.40;99.90;;;;;;4922617;29;20044;-77
2022/03/24 07:01:15;;;;;;;30.73;27.58;;;6.50;99.90;;;;;;4935719;28;20629;-77
2022/03/24 07:03:41;;;;;;;33.53;26.33;;;6.60;99.90;;;;;;4935036;29;20249;-77
2022/03/24 07:06:07;;;;;;;38.00;26.67;;;6.60;99.90;;;;;;4924063;29;20051;-78
2022/03/24 07:08:32;;;;;;;31.90;24.77;;;6.70;99.90;;;;;;4925457;29;20043;-77
2022/03/24 07:10:58;;;;;;;38.00;26.27;;;6.80;99.90;;;;;;4923450;29;20581;-77
2022/03/24 07:13:24;;;;;;;42.50;32.78;;;6.80;99.90;;;;;;4927644;28;20063;-77
2022/03/24 07:15:49;;;;;;;31.45;27.17;;;6.90;99.90;;;;;;4925110;28;20039;-77
2022/03/24 07:18:15;;;;;;;33.70;29.20;;;7.00;99.90;;;;;;4925233;29;20047;-77
2022/03/24 07:20:42;;;;;;;40.20;29.48;;;7.00;99.90;;;;;;4923911;29;20040;-77
2022/03/24 07:23:08;;;;;;;41.90;30.25;;;7.00;99.90;;;;;;4924367;29;20047;-76
2022/03/24 07:25:36;;;;;;;32.67;28.98;;;7.10;99.90;;;;;;4939855;28;20380;-84
2022/03/24 07:28:07;;;;;;;37.55;26.77;;;7.20;99.90;;;;;;4923349;29;20060;-80
2022/03/24 07:30:33;;;;;;;39.95;30.52;;;7.20;99.90;;;;;;4921109;29;20054;-79
2022/03/24 07:33:01;;;;;;;53.67;30.67;;;7.20;99.90;;;;;;4921410;29;20182;-79
2022/03/24 07:35:33;;;;;;;35.95;28.60;;;7.30;99.90;;;;;;4918032;29;20727;-80
2022/03/24 07:37:59;;;;;;;35.08;27.83;;;7.30;99.90;;;;;;4920754;29;20059;-81
2022/03/24 07:40:25;;;;;;;49.85;32.10;;;7.40;99.90;;;;;;4925746;29;20032;-80
2022/03/24 07:42:53;;;;;;;34.38;26.77;;;7.40;99.90;;;;;;4930438;29;20647;-83
2022/03/24 07:45:20;;;;;;;45.50;31.40;;;7.50;99.90;;;;;;4925650;28;20039;-81
2022/03/24 07:48:10;;;;;;;46.65;26.85;;;7.50;99.90;;;;;;4921998;29;20043;-81
2022/03/24 07:50:37;;;;;;;29.27;24.80;;;7.60;99.90;;;;;;4925708;29;20044;-81
2022/03/24 07:53:16;;;;;;;39.42;27.95;;;7.70;99.90;;;;;;4928490;28;20041;-82
2022/03/24 07:55:44;;;;;;;29.10;24.98;;;7.70;99.90;;;;;;4944011;28;20090;-81
2022/03/24 07:58:11;;;;;;;50.38;26.75;;;7.70;99.90;;;;;;4928928;28;20061;-82
2022/03/24 08:00:37;;;;;;;43.80;33.47;;;7.80;99.90;;;;;;4925159;29;20048;-81
2022/03/24 08:03:06;;;;;;;35.67;25.77;;;7.90;99.90;;;;;;4926708;29;20044;-82
2022/03/24 08:05:32;;;;;;;44.75;24.35;;;7.90;99.90;;;;;;4930779;28;20144;-82
2022/03/24 08:07:57;;;;;;;35.30;26.17;;;7.90;99.90;;;;;;4924126;29;20653;-83
2022/03/24 08:10:23;;;;;;;34.70;25.40;;;8.00;99.90;;;;;;4921978;29;20252;-83
2022/03/24 08:12:49;;;;;;;32.85;21.80;;;8.10;99.90;;;;;;4923916;29;20149;-82
2022/03/24 08:15:14;;;;;;;32.58;24.10;;;8.10;99.90;;;;;;4922062;29;20525;-82
2022/03/24 08:17:40;;;;;;;36.65;22.52;;;8.20;99.90;;;;;;4926031;29;20668;-82
2022/03/24 08:20:06;;;;;;;39.35;26.25;;;8.20;99.90;;;;;;4924071;29;20058;-82
2022/03/24 08:22:32;;;;;;;35.38;24.10;;;8.30;99.90;;;;;;4925604;29;20035;-82
2022/03/24 08:24:58;;;;;;;35.03;23.77;;;8.30;99.90;;;;;;4935529;28;20040;-82
2022/03/24 08:27:24;;;;;;;33.00;21.33;;;8.40;99.90;;;;;;4938612;29;20043;-82
2022/03/24 08:29:50;;;;;;;30.40;21.50;;;8.50;99.90;;;;;;4942570;28;20051;-82
2022/03/24 08:32:15;;;;;;;31.75;20.92;;;8.50;99.90;;;;;;4933115;28;20047;-83
2022/03/24 08:34:41;;;;;;;32.13;20.95;;;8.60;99.90;;;;;;4934655;28;20048;-81
2022/03/24 08:37:07;;;;;;;37.45;22.25;;;8.60;99.90;;;;;;4922979;29;20031;-81
2022/03/24 08:39:33;;;;;;;35.30;23.38;;;8.60;99.90;;;;;;4921423;29;20055;-81
2022/03/24 08:41:59;;;;;;;42.53;23.63;;;8.70;99.90;;;;;;4923188;29;20114;-81
2022/03/24 08:44:25;;;;;;;31.52;18.83;;;8.70;99.90;;;;;;4921325;29;20051;-81
2022/03/24 08:46:50;;;;;;;23.15;17.40;;;8.70;99.90;;;;;;4904285;29;20539;-81
2022/03/24 08:49:16;;;;;;;27.42;20.40;;;8.80;99.90;;;;;;4902361;29;20141;-81
2022/03/24 08:51:41;;;;;;;25.80;17.98;;;8.80;99.90;;;;;;4902122;29;20131;-81
2022/03/24 08:54:07;;;;;;;31.65;20.80;;;8.80;99.90;;;;;;4904571;29;20101;-81
2022/03/24 08:56:33;;;;;;;33.05;20.40;;;8.80;99.90;;;;;;4904166;29;20042;-81
2022/03/24 08:58:59;;;;;;;26.40;19.92;;;8.80;99.90;;;;;;4905001;29;20048;-81
2022/03/24 09:01:28;;;;;;;28.52;18.17;;;8.90;99.90;;;;;;4906919;29;20329;-81
2022/03/24 09:03:54;;;;;;;21.92;15.32;;;8.90;99.90;;;;;;4922569;29;20047;-81
2022/03/24 09:06:20;;;;;;;29.42;19.95;;;9.00;99.90;;;;;;4921039;29;20404;-82
2022/03/24 09:08:45;;;;;;;18.48;16.10;;;9.10;99.90;;;;;;4905799;29;20119;-81
2022/03/24 09:11:11;;;;;;;21.13;15.70;;;9.10;99.90;;;;;;4906319;29;20088;-82
2022/03/24 09:13:37;;;;;;;21.58;17.05;;;9.10;99.90;;;;;;4907548;29;20566;-82
2022/03/24 09:16:03;;;;;;;27.58;16.67;;;9.20;99.90;;;;;;4907329;29;20059;-81
2022/03/24 09:18:29;;;;;;;24.52;16.58;;;9.20;99.90;;;;;;4907628;29;20087;-82
2022/03/24 09:20:55;;;;;;;24.15;16.25;;;9.30;99.90;;;;;;4906047;29;20519;-81
2022/03/24 09:23:24;;;;;;;21.90;15.82;;;9.30;99.90;;;;;;4907424;29;20048;-82
2022/03/24 09:25:50;;;;;;;21.35;17.67;;;9.40;99.90;;;;;;4907228;29;20535;-81
2022/03/24 09:28:15;;;;;;;20.45;14.43;;;9.50;99.90;;;;;;4906719;29;20048;-82
2022/03/24 09:30:42;;;;;;;25.42;15.93;;;9.60;99.90;;;;;;4923109;29;20066;-81
2022/03/24 09:33:08;;;;;;;27.88;17.98;;;9.60;99.90;;;;;;4927568;29;20039;-81
2022/03/24 09:35:35;;;;;;;24.00;15.27;;;9.70;99.90;;;;;;4925265;29;20047;-81
2022/03/24 09:38:00;;;;;;;19.88;13.68;;;9.80;99.90;;;;;;4925776;29;20119;-81
2022/03/24 09:40:26;;;;;;;25.80;15.82;;;9.90;99.90;;;;;;4926557;29;20134;-79
2022/03/24 09:42:52;;;;;;;17.30;14.10;;;10.00;99.90;;;;;;4927291;29;20043;-81
2022/03/24 09:45:18;;;;;;;21.35;15.02;;;10.00;99.90;;;;;;4917421;29;20609;-83
2022/03/24 09:47:44;;;;;;;25.33;12.57;;;10.20;99.90;;;;;;4918487;29;20095;-81
2022/03/24 09:50:11;;;;;;;32.50;17.33;;;10.20;99.90;;;;;;4923654;29;20051;-82
2022/03/24 09:52:37;;;;;;;22.95;15.30;;;10.40;99.90;;;;;;4923013;29;20050;-82
2022/03/24 09:55:03;;;;;;;23.23;12.63;;;10.40;99.90;;;;;;4926845;29;20050;-81
2022/03/24 09:57:29;;;;;;;17.58;12.50;;;10.50;99.90;;;;;;4926675;29;20050;-81
2022/03/24 09:59:54;;;;;;;19.70;15.98;;;10.50;99.90;;;;;;4926515;29;20040;-81
2022/03/24 10:02:20;;;;;;;16.80;10.88;;;10.50;99.90;;;;;;4926287;29;20059;-81
2022/03/24 10:04:51;;;;;;;19.80;12.82;;;10.50;99.90;;;;;;4925457;29;20305;-82
2022/03/24 10:07:23;;;;;;;20.63;13.43;;;10.50;99.90;;;;;;4924942;29;20044;-81
2022/03/24 10:09:50;;;;;;;24.35;13.75;;;10.60;99.90;;;;;;4924027;29;20084;-82
2022/03/24 10:12:24;;;;;;;20.73;15.48;;;10.50;99.90;;;;;;4925009;29;20059;-82
2022/03/24 10:15:01;;;;;;;18.35;13.73;;;10.60;99.90;;;;;;4924552;29;20056;-82
2022/03/24 10:17:27;;;;;;;18.95;12.32;;;10.70;99.90;;;;;;4923728;29;20523;-82
2022/03/24 10:19:58;;;;;;;21.75;13.23;;;10.80;99.90;;;;;;4926249;29;20379;-82
2022/03/24 10:22:25;;;;;;;21.63;11.10;;;10.90;99.90;;;;;;4924849;29;20044;-81
2022/03/24 10:24:51;;;;;;;23.65;11.95;;;10.90;99.90;;;;;;4924856;29;20055;-83
2022/03/24 10:27:21;;;;;;;19.55;11.77;;;11.00;99.90;;;;;;4924079;29;20043;-81
2022/03/24 10:29:48;;;;;;;20.30;11.95;;;11.00;99.90;;;;;;4923885;29;20055;-82
2022/03/24 10:32:14;;;;;;;16.52;11.65;;;11.10;99.90;;;;;;4925980;29;20131;-82
2022/03/24 10:34:42;;;;;;;28.77;12.02;;;11.10;99.90;;;;;;4925822;29;20047;-82
2022/03/24 10:37:12;;;;;;;17.60;12.85;;;11.20;99.90;;;;;;4925134;29;20055;-82
2022/03/24 10:39:39;;;;;;;17.60;13.15;;;11.30;99.90;;;;;;4925868;29;20126;-82
2022/03/24 10:42:19;;;;;;;21.33;15.35;;;11.30;99.90;;;;;;4908943;29;20047;-82
2022/03/24 10:45:12;;;;;;;17.83;14.40;;;11.40;99.90;;;;;;4940538;29;20413;-82
2022/03/24 10:48:00;;;;;;;22.38;12.00;;;11.50;99.90;;;;;;4924563;29;20059;-82
2022/03/24 10:50:29;;;;;;;14.88;11.63;;;11.60;99.90;;;;;;4915321;29;20079;-82
2022/03/24 10:53:07;;;;;;;21.65;13.00;;;11.60;99.90;;;;;;4928817;29;20036;-88
2022/03/24 10:55:35;;;;;;;16.13;10.90;;;11.60;99.90;;;;;;4925580;29;20126;-77
2022/03/24 10:58:04;;;;;;;29.60;15.48;;;11.60;99.90;;;;;;4924838;29;20613;-77
2022/03/24 11:00:31;;;;;;;23.73;13.77;;;11.70;99.90;;;;;;4924303;29;20107;-77
2022/03/24 11:02:57;;;;;;;21.88;14.70;;;11.70;99.90;;;;;;4924766;29;20047;-77
2022/03/24 11:05:23;;;;;;;27.23;15.60;;;11.80;99.90;;;;;;4924322;29;20040;-77
2022/03/24 11:07:53;;;;;;;26.38;14.60;;;11.80;99.90;;;;;;4923861;29;20040;-77
2022/03/24 11:10:19;;;;;;;20.13;14.13;;;11.80;99.90;;;;;;4924530;29;20063;-77
2022/03/24 11:12:47;;;;;;;21.42;16.05;;;11.80;99.90;;;;;;4938422;28;20217;-77
2022/03/24 11:15:13;;;;;;;22.15;13.93;;;11.80;99.90;;;;;;4923867;29;20210;-77
2022/03/24 11:17:39;;;;;;;22.80;14.35;;;11.80;99.90;;;;;;4924658;29;20490;-78
2022/03/24 11:20:13;;;;;;;21.13;14.27;;;11.80;99.90;;;;;;4924180;29;20074;-77
2022/03/24 11:22:50;;;;;;;22.80;15.63;;;11.80;99.90;;;;;;4939711;28;20063;-78
2022/03/24 11:25:17;;;;;;;36.00;16.73;;;11.80;99.90;;;;;;4923829;29;20044;-77
2022/03/24 11:27:43;;;;;;;23.88;13.43;;;11.80;99.90;;;;;;4923884;29;20526;-77
2022/03/24 11:30:12;;;;;;;20.65;14.18;;;11.90;99.90;;;;;;4923940;29;20055;-78
2022/03/24 11:32:41;;;;;;;25.33;13.75;;;11.90;99.90;;;;;;4924959;29;20040;-77
2022/03/24 11:35:09;;;;;;;30.45;13.82;;;12.00;99.90;;;;;;4923881;28;20372;-77
2022/03/24 11:37:35;;;;;;;22.08;14.18;;;12.00;99.90;;;;;;4923365;29;20079;-77
2022/03/24 11:40:01;;;;;;;25.00;14.35;;;11.90;99.90;;;;;;4923805;28;20047;-77
2022/03/24 11:42:26;;;;;;;25.52;13.30;;;12.00;99.90;;;;;;4923673;28;20242;-77
2022/03/24 11:45:17;;;;;;;24.95;12.50;;;11.90;99.90;;;;;;4924110;28;20458;-77
2022/03/24 11:47:52;;;;;;;19.75;12.73;;;12.00;99.90;;;;;;4923459;29;20054;-77
2022/03/24 11:50:32;;;;;;;20.67;13.88;;;12.00;99.90;;;;;;4922543;28;20044;-78
2022/03/24 11:53:17;;;;;;;16.67;13.10;;;12.00;99.90;;;;;;4923587;29;20387;-77
2022/03/24 11:56:01;;;;;;;25.40;13.10;;;12.00;99.90;;;;;;4923092;29;20043;-78
2022/03/24 11:59:06;;;;;;;16.33;11.70;;;12.00;99.90;;;;;;4923512;29;20111;-77
2022/03/24 12:01:33;;;;;;;18.52;11.70;;;12.00;99.90;;;;;;4922146;29;20052;-77
2022/03/24 12:04:00;;;;;;;19.95;11.50;;;12.00;99.90;;;;;;4924120;29;20185;-77
2022/03/24 12:06:44;;;;;;;18.27;10.02;;;12.10;99.90;;;;;;4922393;29;20048;-77
2022/03/24 12:09:12;;;;;;;19.00;12.65;;;12.10;99.90;;;;;;4922898;29;20418;-78
2022/03/24 12:11:41;;;;;;;23.08;12.98;;;12.20;99.90;;;;;;4923710;29;20252;-77
2022/03/24 12:14:13;;;;;;;13.13;9.40;;;12.30;99.90;;;;;;4938136;28;20119;-77
2022/03/24 12:16:44;;;;;;;19.60;10.55;;;12.30;99.90;;;;;;4922062;29;20055;-78
2022/03/24 12:19:32;;;;;;;14.27;11.02;;;12.30;99.90;;;;;;4937663;28;20079;-78
2022/03/24 12:21:58;;;;;;;19.63;14.63;;;12.30;99.90;;;;;;4922975;29;20411;-77
2022/03/24 12:24:24;;;;;;;10.15;9.15;;;12.40;99.90;;;;;;4923196;29;20494;-77
2022/03/24 12:26:56;;;;;;;15.52;9.05;;;12.40;99.90;;;;;;4922120;29;20036;-77
2022/03/24 12:29:23;;;;;;;;;;;12.40;99.90;;;;;;4923549;29;20043;-77
2022/03/24 12:32:02;;;;;;;21.98;11.02;;;12.40;99.90;;;;;;4923525;29;20271;-77
2022/03/24 12:34:44;;;;;;;19.85;10.23;;;12.40;99.90;;;;;;4925208;29;20075;-77
2022/03/24 12:37:22;;;;;;;19.70;11.65;;;12.40;99.90;;;;;;4925205;29;20046;-78
2022/03/24 12:39:48;;;;;;;14.57;9.90;;;12.50;99.90;;;;;;4926125;29;20126;-77
2022/03/24 12:42:15;;;;;;;9.52;8.60;;;12.50;99.90;;;;;;4926877;29;20079;-77